Time;durP1;ratioP1;P1;durP2;ratioP2;P2;SDS_P1;SDS_P2;PMS_P1;PMS_P2;Temp;Humidity;BMP_temperature;BMP_pressure;BME280_temperature;BME280_humidity;BME280_pressure;Samples;Min_cycle;Max_cycle;Signal;HPM_P1;HPM_P2
2022/11/17 00:02:06;;;;;;;31.52;14.87;;;;;;;11.16;67.77;97148.84;4494933;31;20133;-77
2022/11/17 00:04:32;;;;;;;31.42;15.65;;;;;;;11.18;67.39;97146.91;4477025;32;20096;-77
2022/11/17 00:06:58;;;;;;;31.25;15.35;;;;;;;11.23;67.42;97146.50;4499361;31;20404;-76
2022/11/17 00:09:23;;;;;;;28.02;13.43;;;;;;;11.38;66.83;97153.13;4476294;31;20092;-76
2022/11/17 00:14:35;;;;;;;28.98;13.30;;;;;;;11.01;67.66;97161.47;4498586;31;20185;-78
2022/11/17 00:17:06;;;;;;;28.10;13.02;;;;;;;11.32;66.46;97158.06;4475070;31;20452;-78
2022/11/17 00:22:15;;;;;;;26.05;12.30;;;;;;;11.45;65.95;97160.53;4483365;31;20164;-77
2022/11/17 00:24:41;;;;;;;26.33;12.85;;;;;;;11.21;66.87;97161.62;4490328;31;20093;-77
2022/11/17 00:27:06;;;;;;;26.48;12.93;;;;;;;11.16;66.58;97159.38;4499527;31;20088;-78
2022/11/17 00:29:32;;;;;;;28.83;13.57;;;;;;;11.18;66.80;97144.28;4491417;31;20111;-77
2022/11/17 00:34:42;;;;;;;29.25;13.52;;;;;;;11.11;67.16;97158.91;4498761;31;20515;-77
2022/11/17 00:37:08;;;;;;;27.27;13.18;;;;;;;11.16;66.93;97162.00;4489278;31;20128;-78
2022/11/17 00:39:34;;;;;;;26.83;12.98;;;;;;;10.84;68.26;97169.09;4483002;31;20152;-80
2022/11/17 00:41:59;;;;;;;28.75;13.55;;;;;;;10.92;67.84;97161.41;4494633;31;20084;-78
2022/11/17 00:44:25;;;;;;;29.15;13.93;;;;;;;10.05;70.95;97164.78;4490780;31;20132;-80
2022/11/17 00:46:53;;;;;;;28.95;14.07;;;;;;;10.78;68.54;97150.19;4485330;31;20126;-79
2022/11/17 00:49:25;;;;;;;32.80;15.45;;;;;;;10.42;69.70;97148.72;4489722;31;20092;-80
2022/11/17 00:51:51;;;;;;;31.60;15.52;;;;;;;10.35;69.79;97147.53;4495817;31;20096;-76
2022/11/17 00:54:17;;;;;;;34.03;15.82;;;;;;;9.90;71.79;97151.03;4481327;31;20212;-77
2022/11/17 00:56:42;;;;;;;33.78;16.60;;;;;;;9.59;73.49;97157.81;4490173;31;20356;-78
2022/11/17 00:59:08;;;;;;;36.72;16.80;;;;;;;9.63;73.48;97156.63;4498759;31;20096;-78
2022/11/17 01:01:33;;;;;;;36.47;16.75;;;;;;;9.77;72.88;97151.16;4477533;31;20110;-79
2022/11/17 01:04:03;;;;;;;35.55;16.50;;;;;;;9.62;73.09;97153.16;4494274;31;20349;-79
2022/11/17 01:06:32;;;;;;;37.13;17.35;;;;;;;9.62;73.96;97149.72;4483484;31;20096;-78
2022/11/17 01:09:03;;;;;;;35.90;17.40;;;;;;;9.53;73.74;97140.72;4488947;31;20114;-80
2022/11/17 01:11:28;;;;;;;34.38;15.65;;;;;;;10.12;72.33;97133.53;4497682;31;20080;-79
2022/11/17 01:13:56;;;;;;;36.10;17.50;;;;;;;10.04;72.40;97135.00;4466131;31;20176;-77
2022/11/17 01:16:22;;;;;;;;;;;;;;;10.42;70.60;97133.75;4492326;31;20141;-78
2022/11/17 01:18:48;;;;;;;32.90;14.75;;;;;;;10.38;70.40;97126.25;4485310;31;20011;-79
2022/11/17 01:21:18;;;;;;;34.22;15.75;;;;;;;10.32;70.82;97122.31;4471604;32;20143;-78
2022/11/17 01:23:45;;;;;;;33.15;15.57;;;;;;;10.57;69.69;97121.16;4471844;32;20444;-77
2022/11/17 01:26:13;;;;;;;31.42;16.10;;;;;;;10.43;69.92;97110.94;4468733;32;20118;-78
2022/11/17 01:28:39;;;;;;;32.72;14.87;;;;;;;10.22;70.46;97116.09;4457687;32;20081;-78
2022/11/17 01:31:07;;;;;;;32.33;15.38;;;;;;;10.17;70.71;97112.97;4453186;32;20077;-77
2022/11/17 01:33:33;;;;;;;;;;;;;;;10.58;69.51;97111.47;4454393;32;20101;-77
2022/11/17 01:36:13;;;;;;;29.48;13.95;;;;;;;10.58;69.52;97109.66;4461753;32;19968;-77
2022/11/17 01:38:39;;;;;;;31.48;15.13;;;;;;;10.29;70.62;97106.72;4457820;32;20084;-78
2022/11/17 01:41:07;;;;;;;29.98;14.27;;;;;;;10.23;70.85;97112.47;4467282;32;20080;-79
2022/11/17 01:43:47;;;;;;;31.42;14.63;;;;;;;9.81;71.95;97115.78;4458672;32;20105;-78
2022/11/17 01:46:26;;;;;;;29.02;12.98;;;;;;;10.01;71.16;97113.37;4460801;32;20791;-78
2022/11/17 01:48:57;;;;;;;29.98;13.95;;;;;;;10.21;69.68;97109.12;4454124;32;20088;-78
2022/11/17 01:51:24;;;;;;;30.15;14.77;;;;;;;10.15;70.16;97101.75;4466274;32;20140;-78
2022/11/17 01:53:50;;;;;;;29.87;14.45;;;;;;;10.33;69.41;97107.34;4461607;32;20104;-79
2022/11/17 01:56:20;;;;;;;28.15;13.82;;;;;;;10.63;68.61;97115.41;4444895;32;20119;-78
2022/11/17 01:58:51;;;;;;;29.15;13.98;;;;;;;9.92;70.77;97127.22;4453262;32;20093;-77
2022/11/17 02:01:16;;;;;;;28.25;13.18;;;;;;;10.48;69.26;97123.72;4453680;32;20370;-77
2022/11/17 02:03:43;;;;;;;28.45;13.07;;;;;;;10.44;69.22;97123.12;4454923;32;20084;-76
2022/11/17 02:06:35;;;;;;;26.75;14.07;;;;;;;10.55;68.63;97130.16;4453278;32;20116;-77
2022/11/17 02:09:02;;;;;;;29.90;14.00;;;;;;;10.07;70.45;97138.34;4476880;32;20097;-76
2022/11/17 02:11:34;;;;;;;29.87;13.32;;;;;;;10.33;69.40;97133.66;4464025;32;20081;-78
2022/11/17 02:14:01;;;;;;;28.30;13.73;;;;;;;10.52;68.64;97133.03;4462170;32;20093;-77
2022/11/17 02:16:26;;;;;;;29.25;14.15;;;;;;;9.92;70.82;97133.31;4458427;32;20124;-76
2022/11/17 02:18:52;;;;;;;28.10;14.02;;;;;;;10.27;69.50;97132.31;4454531;32;20113;-77
2022/11/17 02:21:55;;;;;;;27.15;13.18;;;;;;;10.23;69.44;97139.62;4465913;32;20093;-78
2022/11/17 02:24:32;;;;;;;27.65;13.32;;;;;;;10.60;68.21;97136.72;4463681;32;20150;-77
2022/11/17 02:27:15;;;;;;;28.48;13.50;;;;;;;10.35;68.87;97137.00;4474219;31;20100;-77
2022/11/17 02:29:48;;;;;;;27.90;12.68;;;;;;;10.04;70.68;97139.41;4491194;31;20154;-80
2022/11/17 02:32:23;;;;;;;28.40;13.15;;;;;;;10.51;68.43;97124.31;4477544;32;20076;-80
2022/11/17 02:35:06;;;;;;;28.70;13.02;;;;;;;10.75;67.64;97118.00;4498421;31;20206;-80
2022/11/17 02:37:50;;;;;;;30.35;14.27;;;;;;;10.74;67.69;97111.91;4490123;31;20151;-80
2022/11/17 02:40:23;;;;;;;31.98;14.95;;;;;;;10.70;67.67;97105.22;4491622;31;20089;-79
2022/11/17 02:45:50;;;;;;;32.70;15.35;;;;;;;10.04;70.11;97102.56;4491672;31;20123;-79
2022/11/17 02:48:23;;;;;;;31.77;15.35;;;;;;;10.29;69.58;97101.47;4476506;32;20156;-78
2022/11/17 02:50:49;;;;;;;31.83;15.95;;;;;;;10.24;69.44;97101.84;4484250;31;20118;-77
2022/11/17 02:53:15;;;;;;;31.35;13.68;;;;;;;10.29;69.31;97100.62;4473449;31;20088;-77
2022/11/17 02:55:48;;;;;;;32.45;14.05;;;;;;;9.71;71.30;97099.03;4480783;32;20185;-78
2022/11/17 02:58:14;;;;;;;33.05;15.18;;;;;;;10.02;70.34;97088.72;4494231;31;20129;-77
2022/11/17 03:00:49;;;;;;;33.55;14.70;;;;;;;9.63;71.76;97098.78;4473259;32;20085;-80
2022/11/17 03:03:21;;;;;;;30.73;14.93;;;;;;;10.00;69.82;97099.34;4484853;32;20119;-79
2022/11/17 03:06:06;;;;;;;30.40;14.10;;;;;;;9.35;72.33;97100.94;4484807;32;20103;-79
2022/11/17 03:08:40;;;;;;;33.08;15.13;;;;;;;9.53;71.73;97093.41;4483625;31;20108;-77
2022/11/17 03:11:07;;;;;;;32.78;14.98;;;;;;;9.22;72.97;97092.31;4490049;31;20159;-78
2022/11/17 03:13:44;;;;;;;29.00;14.27;;;;;;;8.95;73.75;97089.97;4483487;31;20156;-78
2022/11/17 03:16:18;;;;;;;35.65;15.95;;;;;;;8.98;74.07;97080.09;4496189;31;20096;-79
2022/11/17 03:19:05;;;;;;;32.58;15.18;;;;;;;9.10;73.76;97080.94;4490316;31;20080;-79
2022/11/17 03:21:36;;;;;;;36.42;14.85;;;;;;;9.33;72.66;97071.31;4487303;32;20483;-79
2022/11/17 03:24:07;;;;;;;35.47;15.07;;;;;;;9.16;72.68;97069.97;4486377;31;20110;-80
2022/11/17 03:26:35;;;;;;;34.53;14.90;;;;;;;9.41;72.28;97060.19;4498485;31;20144;-79
2022/11/17 03:29:03;;;;;;;30.27;14.32;;;;;;;9.55;71.17;97051.22;4475353;31;20752;-77
2022/11/17 03:31:30;;;;;;;31.77;15.57;;;;;;;9.43;71.61;97051.22;4471110;32;20097;-77
2022/11/17 03:33:57;;;;;;;33.75;15.05;;;;;;;9.23;72.55;97051.94;4494249;31;20143;-78
2022/11/17 03:36:26;;;;;;;33.63;16.00;;;;;;;9.12;73.13;97063.28;4477940;32;20255;-80
2022/11/17 03:38:58;;;;;;;32.15;15.43;;;;;;;8.54;75.20;97065.03;4485535;31;20130;-79
2022/11/17 03:41:24;;;;;;;32.38;14.45;;;;;;;8.64;75.22;97071.28;4476438;31;20111;-81
2022/11/17 03:43:51;;;;;;;34.38;14.52;;;;;;;9.03;73.21;97080.56;4481708;32;20114;-78
2022/11/17 03:46:18;;;;;;;35.60;16.53;;;;;;;8.98;73.47;97087.09;4481978;31;20479;-80
2022/11/17 03:48:49;;;;;;;32.38;14.57;;;;;;;8.99;73.42;97097.50;4475758;32;20096;-78
2022/11/17 03:51:17;;;;;;;34.13;15.02;;;;;;;8.96;73.27;97096.91;4475539;31;20092;-78
2022/11/17 03:53:44;;;;;;;31.90;14.07;;;;;;;8.94;73.44;97101.44;4496917;31;20144;-80
2022/11/17 03:56:27;;;;;;;30.67;14.27;;;;;;;9.27;71.69;97110.34;4481329;31;20144;-77
2022/11/17 03:59:14;;;;;;;33.15;14.68;;;;;;;8.98;72.33;97106.34;4475402;31;20148;-80
2022/11/17 04:01:39;;;;;;;34.05;14.70;;;;;;;9.20;71.67;97110.81;4482364;32;20088;-80
2022/11/17 04:04:05;;;;;;;32.50;14.05;;;;;;;9.31;71.08;97117.88;4480748;31;20173;-81
2022/11/17 04:06:30;;;;;;;29.58;13.18;;;;;;;9.56;70.12;97122.09;4491662;31;20135;-79
2022/11/17 04:08:56;;;;;;;30.60;13.62;;;;;;;9.17;71.49;97132.03;4499729;31;20612;-82
2022/11/17 04:16:49;;;;;;;30.95;13.68;;;;;;;8.20;76.47;97125.16;4499847;31;20083;-79
2022/11/17 04:19:14;;;;;;;31.25;13.48;;;;;;;8.51;75.22;97120.37;4474222;31;20101;-79
2022/11/17 04:21:40;;;;;;;29.45;13.55;;;;;;;8.39;75.20;97116.81;4496985;31;20130;-78
2022/11/17 04:24:06;;;;;;;29.42;12.70;;;;;;;8.33;75.34;97114.63;4494798;31;20080;-78
2022/11/17 04:29:16;;;;;;;31.10;13.57;;;;;;;8.46;75.47;97113.66;4486558;32;20486;-78
2022/11/17 04:31:44;;;;;;;30.08;13.05;;;;;;;8.53;75.34;97118.47;4486845;31;20084;-80
2022/11/17 04:34:09;;;;;;;32.83;13.57;;;;;;;8.85;73.66;97106.41;4495273;31;20083;-78
2022/11/17 04:36:39;;;;;;;33.83;14.32;;;;;;;8.56;74.88;97113.81;4490861;31;20112;-80
2022/11/17 04:39:05;;;;;;;31.00;13.88;;;;;;;8.32;75.91;97108.53;4485016;31;20118;-81
2022/11/17 04:44:15;;;;;;;34.83;14.60;;;;;;;8.68;73.91;97106.84;4480578;32;20106;-79
2022/11/17 04:46:45;;;;;;;35.85;15.10;;;;;;;8.51;75.42;97110.69;4484637;31;20126;-81
2022/11/17 04:49:11;;;;;;;35.00;15.43;;;;;;;7.87;78.97;97116.12;4489209;31;20132;-79
2022/11/17 04:51:37;;;;;;;35.33;15.02;;;;;;;7.86;79.66;97122.28;4483067;32;20092;-81
2022/11/17 04:54:04;;;;;;;38.92;15.60;;;;;;;8.23;77.72;97130.19;4494642;31;20075;-79
2022/11/17 04:56:29;;;;;;;34.20;14.80;;;;;;;8.18;78.72;97143.63;4477440;32;20140;-77
2022/11/17 04:58:58;;;;;;;37.53;15.05;;;;;;;8.64;76.16;97129.00;4485460;31;20114;-79
2022/11/17 05:01:25;;;;;;;32.08;14.00;;;;;;;8.30;78.09;97131.41;4490460;31;20096;-79
2022/11/17 05:03:58;;;;;;;34.45;14.90;;;;;;;8.45;76.94;97137.38;4495897;31;20091;-80
2022/11/17 05:06:32;;;;;;;35.30;14.90;;;;;;;7.73;80.63;97145.09;4496960;31;20122;-78
2022/11/17 05:08:58;;;;;;;30.70;14.13;;;;;;;8.29;77.92;97142.87;4475221;31;20139;-79
2022/11/17 05:14:12;;;;;;;32.92;14.23;;;;;;;8.39;77.50;97149.13;4495026;31;20560;-79
2022/11/17 05:19:27;;;;;;;31.08;13.43;;;;;;;8.29;76.72;97142.87;4486609;32;20163;-80
2022/11/17 05:21:52;;;;;;;31.02;13.57;;;;;;;8.13;78.34;97144.91;4486261;31;20105;-78
2022/11/17 05:24:18;;;;;;;32.55;13.40;;;;;;;7.96;78.90;97149.56;4495836;31;20108;-77
2022/11/17 05:26:44;;;;;;;33.25;13.13;;;;;;;8.18;77.93;97145.41;4474547;32;20108;-77
2022/11/17 05:29:11;;;;;;;31.37;13.62;;;;;;;8.63;75.31;97136.06;4499341;31;20092;-79
2022/11/17 05:31:37;;;;;;;34.17;13.47;;;;;;;8.39;76.56;97148.31;4476878;31;20084;-79
2022/11/17 05:34:04;;;;;;;33.40;13.62;;;;;;;8.63;75.40;97145.69;4494006;31;20186;-79
2022/11/17 05:36:30;;;;;;;31.52;13.82;;;;;;;8.99;73.47;97134.28;4497488;31;20127;-77
2022/11/17 05:38:56;;;;;;;30.73;13.05;;;;;;;8.98;73.53;97132.63;4488855;31;20108;-78
2022/11/17 05:41:22;;;;;;;32.97;13.52;;;;;;;8.70;74.81;97132.97;4498640;31;20100;-79
2022/11/17 05:43:49;;;;;;;32.65;14.18;;;;;;;8.12;77.76;97132.75;4478185;31;20110;-78
2022/11/17 05:46:15;;;;;;;33.30;14.55;;;;;;;8.28;77.36;97139.38;4492359;31;20104;-78
2022/11/17 05:48:40;;;;;;;34.50;14.60;;;;;;;8.17;77.49;97143.72;4483924;31;20088;-80
2022/11/17 05:51:06;;;;;;;33.03;13.73;;;;;;;8.94;73.79;97133.75;4473981;31;20114;-79
2022/11/17 05:53:31;;;;;;;34.00;14.75;;;;;;;8.83;73.72;97139.00;4496803;31;20103;-78
2022/11/17 05:56:08;;;;;;;32.30;14.75;;;;;;;8.43;75.34;97144.53;4474743;31;20126;-79
2022/11/17 05:58:35;;;;;;;31.02;14.45;;;;;;;8.64;75.10;97150.00;4502443;31;20079;-80
2022/11/17 06:01:01;;;;;;;34.17;14.52;;;;;;;9.02;73.10;97147.19;4488015;31;20100;-79
2022/11/17 06:03:48;;;;;;;35.85;15.43;;;;;;;8.93;73.20;97158.37;4487621;31;20383;-79
2022/11/17 06:06:14;;;;;;;30.73;13.57;;;;;;;8.55;75.67;97162.00;4474259;31;20696;-80
2022/11/17 06:08:40;;;;;;;34.15;14.68;;;;;;;8.99;73.49;97167.59;4502239;31;20079;-80
2022/11/17 06:11:05;;;;;;;34.05;14.98;;;;;;;9.02;73.05;97168.19;4481937;31;20158;-78
2022/11/17 06:13:31;;;;;;;33.17;13.98;;;;;;;8.87;74.41;97169.34;4493252;31;20080;-81
2022/11/17 06:15:59;;;;;;;29.85;13.52;;;;;;;8.77;74.01;97169.16;4486081;31;20108;-81
2022/11/17 06:18:34;;;;;;;34.42;13.75;;;;;;;8.26;77.43;97169.31;4499627;31;20208;-80
2022/11/17 06:21:00;;;;;;;33.53;13.40;;;;;;;8.72;75.02;97162.59;4486642;31;20096;-80
2022/11/17 06:23:27;;;;;;;32.05;13.68;;;;;;;8.65;75.69;97165.66;4500511;31;20080;-81
2022/11/17 06:25:53;;;;;;;33.55;15.13;;;;;;;8.42;76.72;97167.31;4500050;31;20089;-80
2022/11/17 06:28:20;;;;;;;32.65;13.73;;;;;;;8.39;76.53;97169.28;4474605;31;20118;-80
2022/11/17 06:30:46;;;;;;;33.45;13.93;;;;;;;8.86;74.76;97170.28;4487590;31;20110;-80
2022/11/17 06:33:16;;;;;;;30.88;13.07;;;;;;;8.04;77.98;97177.88;4487604;31;20084;-80
2022/11/17 06:35:43;;;;;;;35.53;13.77;;;;;;;8.51;75.77;97172.84;4501854;31;20088;-80
2022/11/17 06:38:08;;;;;;;31.75;13.93;;;;;;;8.20;77.76;97177.62;4501921;31;20144;-80
2022/11/17 06:40:34;;;;;;;33.17;13.80;;;;;;;8.88;74.78;97170.16;4487524;31;20133;-81
2022/11/17 06:43:02;;;;;;;33.40;13.65;;;;;;;8.84;74.22;97173.00;4488730;31;20080;-80
2022/11/17 06:45:48;;;;;;;29.05;12.27;;;;;;;8.94;74.38;97174.97;4503635;31;20083;-80
2022/11/17 06:48:15;;;;;;;25.20;11.02;;;;;;;9.00;74.47;97179.75;4503822;31;20344;-81
2022/11/17 06:50:41;;;;;;;25.17;11.80;;;;;;;9.13;72.98;97177.91;4489821;31;20092;-80
2022/11/17 06:53:09;;;;;;;24.73;10.75;;;;;;;9.15;73.21;97178.63;4489522;31;20548;-80
2022/11/17 06:55:35;;;;;;;26.25;10.90;;;;;;;9.39;72.23;97185.62;4503861;31;20110;-80
2022/11/17 06:58:03;;;;;;;23.77;9.55;;;;;;;9.52;71.38;97191.66;4503823;31;20118;-80
2022/11/17 07:00:29;;;;;;;22.92;9.55;;;;;;;9.30;72.15;97187.16;4489585;31;20139;-80
2022/11/17 07:03:05;;;;;;;21.42;8.85;;;;;;;9.31;72.03;97196.72;4489425;31;20096;-80
2022/11/17 07:05:32;;;;;;;24.87;10.93;;;;;;;9.93;69.95;97190.25;4489417;31;20100;-80
2022/11/17 07:07:59;;;;;;;26.30;10.00;;;;;;;9.80;70.33;97182.47;4503803;31;20130;-79
2022/11/17 07:10:31;;;;;;;21.15;8.68;;;;;;;10.04;69.26;97190.25;4489515;31;20455;-79
2022/11/17 07:12:57;;;;;;;21.75;9.27;;;;;;;9.83;69.75;97202.41;4503759;31;20068;-81
2022/11/17 07:15:23;;;;;;;20.33;8.70;;;;;;;10.29;68.23;97192.75;4503708;31;20119;-82
2022/11/17 07:17:48;;;;;;;21.60;8.98;;;;;;;10.19;67.90;97188.19;4476023;31;20487;-81
2022/11/17 07:20:15;;;;;;;21.65;9.07;;;;;;;10.52;66.93;97189.16;4503950;31;20357;-82
2022/11/17 07:22:40;;;;;;;19.45;8.07;;;;;;;10.60;66.84;97178.00;4503519;31;20486;-87
2022/11/17 07:25:06;;;;;;;17.08;7.87;;;;;;;10.09;68.48;97179.38;4489105;31;20123;-81
2022/11/17 07:27:32;;;;;;;22.92;8.30;;;;;;;10.21;68.27;97188.91;4486336;32;20099;-81
2022/11/17 07:29:57;;;;;;;31.02;8.65;;;;;;;9.95;69.55;97185.72;4487817;31;20119;-81
2022/11/17 07:32:23;;;;;;;22.65;8.98;;;;;;;9.92;70.02;97183.31;4486577;32;20356;-82
2022/11/17 07:34:48;;;;;;;21.65;8.60;;;;;;;10.69;67.27;97177.25;4476390;32;20112;-83
2022/11/17 07:37:14;;;;;;;21.62;9.25;;;;;;;10.29;68.45;97176.94;4480265;31;20115;-83
2022/11/17 07:39:39;;;;;;;26.37;9.60;;;;;;;10.72;67.51;97182.28;4482198;32;20106;-80
2022/11/17 07:42:07;;;;;;;21.15;9.35;;;;;;;10.48;67.71;97179.00;4486332;32;20084;-78
2022/11/17 07:44:33;;;;;;;21.27;9.82;;;;;;;10.93;66.01;97177.09;4487528;31;20435;-77
2022/11/17 07:47:01;;;;;;;24.00;9.88;;;;;;;10.61;67.37;97185.78;4486258;31;20088;-81
2022/11/17 07:49:27;;;;;;;26.98;9.93;;;;;;;10.84;66.95;97191.00;4487641;31;20591;-80
2022/11/17 07:51:52;;;;;;;22.58;10.75;;;;;;;10.09;69.51;97200.41;4487737;32;20107;-81
2022/11/17 07:54:18;;;;;;;22.35;10.52;;;;;;;10.00;69.59;97201.94;4467730;32;20143;-80
2022/11/17 07:56:44;;;;;;;28.15;11.40;;;;;;;10.04;70.23;97192.03;4455372;32;20357;-80
2022/11/17 07:59:09;;;;;;;25.75;10.85;;;;;;;9.94;70.88;97188.44;4455122;32;20259;-81
2022/11/17 08:01:35;;;;;;;26.52;11.32;;;;;;;10.02;70.40;97186.91;4457346;32;20133;-79
2022/11/17 08:04:00;;;;;;;28.67;12.37;;;;;;;9.44;73.23;97191.38;4457388;32;20354;-82
2022/11/17 08:06:26;;;;;;;29.92;12.75;;;;;;;9.91;71.44;97188.66;4454826;32;20133;-84
2022/11/17 08:08:52;;;;;;;29.37;12.30;;;;;;;9.80;71.08;97190.34;4457579;32;20140;-84
2022/11/17 08:11:18;;;;;;;30.17;12.85;;;;;;;10.07;70.19;97190.97;4462382;32;20089;-81
2022/11/17 08:13:44;;;;;;;30.80;13.52;;;;;;;10.11;70.07;97195.03;4457405;32;20174;-81
2022/11/17 08:16:11;;;;;;;30.55;13.75;;;;;;;10.36;69.15;97204.50;4459644;32;20162;-80
2022/11/17 08:18:36;;;;;;;25.02;11.98;;;;;;;10.10;69.98;97199.47;4452579;32;20114;-79
2022/11/17 08:21:07;;;;;;;28.90;11.73;;;;;;;10.11;70.05;97205.56;4459850;32;20475;-81
2022/11/17 08:23:33;;;;;;;25.70;11.68;;;;;;;10.06;70.32;97205.06;4461589;32;20119;-80
2022/11/17 08:26:00;;;;;;;28.35;11.48;;;;;;;10.19;69.58;97211.87;4461846;32;20101;-80
2022/11/17 08:28:26;;;;;;;30.20;11.43;;;;;;;10.11;69.98;97216.91;4481626;31;20092;-80
2022/11/17 08:30:52;;;;;;;28.70;11.95;;;;;;;10.69;68.30;97222.03;4468392;32;20164;-80
2022/11/17 08:33:17;;;;;;;25.85;11.18;;;;;;;10.52;69.28;97227.81;4481957;31;20120;-80
2022/11/17 08:35:44;;;;;;;24.35;11.77;;;;;;;10.56;68.81;97227.44;4479945;31;20139;-81
2022/11/17 08:38:11;;;;;;;24.52;10.52;;;;;;;11.01;66.98;97226.53;4482045;31;20131;-80
2022/11/17 08:40:37;;;;;;;24.80;10.25;;;;;;;10.57;67.00;97237.03;4481098;31;20538;-81
2022/11/17 08:43:02;;;;;;;21.87;9.68;;;;;;;10.84;66.15;97245.50;4481596;31;20922;-78
2022/11/17 08:45:28;;;;;;;22.52;10.35;;;;;;;10.90;66.35;97243.19;4475347;32;20516;-81
2022/11/17 08:47:55;;;;;;;23.00;9.38;;;;;;;10.40;66.05;97246.25;4471349;31;20139;-81
2022/11/17 08:50:25;;;;;;;21.33;9.60;;;;;;;10.38;67.59;97245.53;4471292;31;20109;-80
2022/11/17 08:52:52;;;;;;;20.98;8.85;;;;;;;11.07;65.49;97249.72;4480152;31;20127;-80
2022/11/17 08:55:17;;;;;;;21.67;9.77;;;;;;;11.25;64.66;97252.66;4471176;32;20120;-82
2022/11/17 08:57:43;;;;;;;22.48;10.20;;;;;;;11.45;64.07;97256.28;4468529;31;20127;-79
2022/11/17 09:00:09;;;;;;;20.73;9.15;;;;;;;11.83;63.58;97257.53;4485126;31;20135;-80
2022/11/17 09:02:36;;;;;;;20.73;8.95;;;;;;;11.72;62.84;97253.12;4482364;31;20110;-80
2022/11/17 09:05:02;;;;;;;21.63;9.23;;;;;;;11.97;62.06;97257.22;4480594;31;20111;-82
2022/11/17 09:07:30;;;;;;;20.40;8.90;;;;;;;11.37;63.62;97261.34;4461486;31;20464;-80
2022/11/17 09:09:56;;;;;;;21.23;9.00;;;;;;;11.79;63.06;97261.41;4467648;32;20525;-80
2022/11/17 09:12:21;;;;;;;19.35;8.50;;;;;;;12.08;61.94;97260.78;4481854;31;20200;-80
2022/11/17 09:14:47;;;;;;;17.27;7.93;;;;;;;11.57;62.95;97262.34;4480794;31;20099;-81
2022/11/17 09:17:12;;;;;;;16.83;7.65;;;;;;;12.07;61.35;97278.41;4482881;31;20128;-80
2022/11/17 09:19:38;;;;;;;17.00;7.00;;;;;;;12.04;60.88;97278.66;4480765;31;20205;-81
2022/11/17 09:22:03;;;;;;;19.48;8.10;;;;;;;12.28;60.45;97275.72;4482820;31;20124;-80
2022/11/17 09:24:29;;;;;;;18.27;7.85;;;;;;;12.48;59.95;97274.03;4483118;31;20097;-81
2022/11/17 09:26:56;;;;;;;18.73;7.97;;;;;;;12.57;59.70;97275.88;4480706;31;20135;-80
2022/11/17 09:29:22;;;;;;;17.92;8.32;;;;;;;12.38;60.42;97284.56;4482030;31;20226;-80
2022/11/17 09:31:47;;;;;;;18.10;8.05;;;;;;;12.52;59.79;97283.34;4479384;31;20108;-80
2022/11/17 09:34:13;;;;;;;16.62;7.82;;;;;;;11.51;62.09;97291.84;4482058;31;20388;-80
2022/11/17 09:36:38;;;;;;;20.67;8.10;;;;;;;12.65;59.27;97285.78;4479605;31;20427;-80
2022/11/17 09:39:04;;;;;;;17.58;8.23;;;;;;;12.68;58.91;97276.75;4469131;32;20164;-80
2022/11/17 09:41:42;;;;;;;20.52;8.63;;;;;;;12.11;60.29;97273.69;4480454;31;20143;-80
2022/11/17 09:44:10;;;;;;;19.15;8.80;;;;;;;12.48;59.71;97268.75;4467509;31;20123;-80
2022/11/17 09:46:44;;;;;;;19.48;8.68;;;;;;;12.87;57.95;97268.88;4482282;31;20100;-80
2022/11/17 09:49:35;;;;;;;23.30;9.10;;;;;;;12.43;59.85;97262.19;4479965;31;20573;-80
2022/11/17 09:52:09;;;;;;;17.52;7.85;;;;;;;12.49;60.09;97264.28;4481817;31;20093;-80
2022/11/17 09:54:56;;;;;;;18.77;8.57;;;;;;;13.02;58.05;97244.66;4473396;31;21337;-81
2022/11/17 09:57:30;;;;;;;18.52;8.48;;;;;;;12.94;58.27;97251.50;4471057;32;20101;-82
2022/11/17 10:00:03;;;;;;;18.73;8.40;;;;;;;13.11;57.81;97241.22;4476040;32;20109;-80
2022/11/17 10:02:28;;;;;;;21.75;8.82;;;;;;;13.33;56.39;97241.00;4479650;31;20096;-81
2022/11/17 10:04:53;;;;;;;21.45;9.45;;;;;;;12.83;57.54;97248.97;4471263;32;20155;-80
2022/11/17 10:07:19;;;;;;;20.27;9.27;;;;;;;12.52;59.53;97253.47;4468293;31;20128;-80
2022/11/17 10:09:46;;;;;;;22.40;9.85;;;;;;;13.20;57.59;97245.69;4472573;31;20088;-80
2022/11/17 10:12:13;;;;;;;22.00;10.05;;;;;;;13.34;57.44;97249.75;4472472;32;20164;-81
2022/11/17 10:14:46;;;;;;;20.15;9.10;;;;;;;12.81;58.41;97248.25;4471645;31;20135;-79
2022/11/17 10:17:12;;;;;;;19.90;8.95;;;;;;;12.75;58.66;97251.47;4470476;32;20092;-80
2022/11/17 10:19:38;;;;;;;18.83;8.85;;;;;;;13.18;57.90;97240.53;4481147;31;20151;-80
2022/11/17 10:22:09;;;;;;;18.10;8.23;;;;;;;13.39;56.67;97249.34;4470128;32;20530;-80
2022/11/17 10:24:45;;;;;;;17.62;8.45;;;;;;;13.11;56.63;97236.75;4480602;31;20167;-80
2022/11/17 10:27:31;;;;;;;19.02;7.57;;;;;;;13.22;55.92;97235.78;4462288;32;20635;-80
2022/11/17 10:30:05;;;;;;;19.42;7.82;;;;;;;13.23;55.85;97237.47;4472787;31;20084;-80
2022/11/17 10:32:34;;;;;;;17.70;7.93;;;;;;;13.40;55.97;97240.41;4470745;31;20165;-79
2022/11/17 10:35:15;;;;;;;20.70;8.88;;;;;;;13.17;56.61;97240.66;4477846;32;20108;-80
2022/11/17 10:37:51;;;;;;;18.33;8.27;;;;;;;13.54;56.39;97242.63;4480867;31;20156;-80
2022/11/17 10:40:22;;;;;;;18.98;8.23;;;;;;;13.33;56.96;97246.28;4473136;31;20167;-80
2022/11/17 10:43:15;;;;;;;17.98;7.57;;;;;;;13.06;57.40;97257.50;4472901;32;20487;-81
2022/11/17 10:45:48;;;;;;;16.90;7.95;;;;;;;13.21;56.39;97249.97;4391998;32;20114;-80
2022/11/17 10:48:22;;;;;;;17.98;7.60;;;;;;;13.23;56.63;97242.78;4411515;32;21755;-81
2022/11/17 10:50:54;;;;;;;17.30;8.23;;;;;;;13.09;56.94;97253.72;4389429;32;20481;-80
2022/11/17 10:53:24;;;;;;;17.25;7.53;;;;;;;13.33;56.08;97251.56;4404104;32;20122;-80
2022/11/17 10:55:56;;;;;;;17.12;7.75;;;;;;;13.49;55.86;97251.00;4407651;32;20429;-80
2022/11/17 10:58:25;;;;;;;15.68;7.43;;;;;;;12.93;56.56;97256.91;4414782;32;20093;-80
2022/11/17 11:00:56;;;;;;;17.90;8.25;;;;;;;12.49;58.80;97267.75;4413026;32;20432;-81
2022/11/17 11:03:24;;;;;;;18.55;8.25;;;;;;;12.68;59.09;97266.16;4400569;32;20107;-80
2022/11/17 11:06:18;;;;;;;17.05;7.35;;;;;;;13.02;58.06;97255.25;4395999;32;20114;-80
2022/11/17 11:08:56;;;;;;;18.37;8.02;;;;;;;12.88;57.82;97246.72;4408133;32;20145;-81
2022/11/17 11:11:47;;;;;;;17.67;7.23;;;;;;;13.09;57.49;97254.56;4398957;32;20110;-81
2022/11/17 11:14:24;;;;;;;15.90;7.22;;;;;;;13.14;56.82;97252.34;4400116;32;20246;-81
2022/11/17 11:16:50;;;;;;;14.57;6.87;;;;;;;12.71;57.94;97252.66;4394861;32;20132;-79
2022/11/17 11:19:17;;;;;;;16.48;7.40;;;;;;;13.11;56.67;97249.97;4396812;32;20214;-78
2022/11/17 11:21:57;;;;;;;17.70;7.57;;;;;;;13.46;56.23;97240.72;4420778;31;20126;-79
2022/11/17 11:24:28;;;;;;;17.17;7.18;;;;;;;13.30;56.69;97245.72;4470802;31;20166;-80
2022/11/17 11:27:08;;;;;;;15.43;7.18;;;;;;;13.24;56.34;97246.25;4484696;31;20733;-79
2022/11/17 11:29:56;;;;;;;16.87;7.72;;;;;;;13.54;55.19;97242.63;4468672;32;20120;-79
2022/11/17 11:32:50;;;;;;;15.90;7.37;;;;;;;13.54;55.10;97246.12;4474302;31;20112;-79
2022/11/17 11:35:38;;;;;;;16.20;6.70;;;;;;;13.48;55.83;97244.06;4475970;31;20088;-80
2022/11/17 11:38:22;;;;;;;15.68;6.85;;;;;;;13.88;54.04;97247.47;4481094;31;20128;-79
2022/11/17 11:41:03;;;;;;;15.32;7.35;;;;;;;13.72;54.91;97251.53;4482953;31;20108;-79
2022/11/17 11:43:28;;;;;;;14.18;6.93;;;;;;;13.68;54.59;97247.50;4470807;31;20127;-79
2022/11/17 11:46:19;;;;;;;15.02;6.78;;;;;;;13.87;54.03;97244.00;4482630;31;20108;-79
2022/11/17 11:48:49;;;;;;;14.38;6.47;;;;;;;13.84;54.27;97243.44;4447891;32;20873;-79
2022/11/17 11:51:19;;;;;;;15.60;6.35;;;;;;;13.98;53.75;97231.56;4432696;32;20176;-86
2022/11/17 11:54:22;;;;;;;14.77;6.60;;;;;;;14.19;53.60;97242.78;4435462;32;20224;-81
2022/11/17 11:56:49;;;;;;;14.48;6.55;;;;;;;13.88;53.44;97237.72;4370476;32;20110;-81
2022/11/17 11:59:26;;;;;;;13.75;6.05;;;;;;;13.59;54.15;97245.72;4359763;32;20443;-81
2022/11/17 12:01:54;;;;;;;15.45;6.43;;;;;;;13.99;53.38;97242.03;4360383;32;20107;-82
2022/11/17 12:04:53;;;;;;;14.60;6.22;;;;;;;13.81;52.80;97246.38;4358035;32;20457;-82